Time;durP1;ratioP1;P1;durP2;ratioP2;P2;SDS_P1;SDS_P2;PMS_P1;PMS_P2;Temp;Humidity;BMP_temperature;BMP_pressure;BME280_temperature;BME280_humidity;BME280_pressure;Samples;Min_cycle;Max_cycle;Signal;HPM_P1;HPM_P2
2022/08/03 00:00:57;;;;;;;2.23;1.37;;;;;;;19.57;70.72;101457.34;4974583;28;20022;-93
2022/08/03 00:03:23;;;;;;;1.50;1.40;;;;;;;19.56;70.88;101452.13;4974591;28;20066;-93
2022/08/03 00:05:48;;;;;;;2.80;1.47;;;;;;;19.50;70.82;101450.63;4974307;28;20031;-93
2022/08/03 00:08:13;;;;;;;2.17;1.37;;;;;;;19.49;71.19;101456.81;4974729;28;20022;-94
2022/08/03 00:10:39;;;;;;;1.40;1.30;;;;;;;19.46;71.30;101456.97;4974370;28;20019;-93
2022/08/03 00:13:04;;;;;;;1.57;1.23;;;;;;;19.42;71.42;101450.94;4974480;28;20023;-93
2022/08/03 00:15:29;;;;;;;1.30;1.20;;;;;;;19.38;71.31;101443.25;4974138;28;20027;-93
2022/08/03 00:17:55;;;;;;;1.30;1.20;;;;;;;19.36;71.63;101453.00;4974688;28;20114;-94
2022/08/03 00:20:21;;;;;;;1.30;1.20;;;;;;;19.31;71.48;101454.97;4978136;28;20077;-92
2022/08/03 00:22:55;;;;;;;1.38;1.30;;;;;;;19.26;71.59;101449.91;4978131;28;20058;-92
2022/08/03 00:25:20;;;;;;;1.30;1.20;;;;;;;19.24;71.53;101446.47;4978248;28;20027;-93
2022/08/03 00:27:52;;;;;;;1.20;1.20;;;;;;;19.17;71.93;101440.63;4977684;28;20375;-93
2022/08/03 00:30:17;;;;;;;1.10;1.00;;;;;;;19.16;72.15;101449.41;4977887;28;20026;-93
2022/08/03 00:32:46;;;;;;;1.00;1.00;;;;;;;19.11;72.01;101446.16;4977992;28;20062;-93
2022/08/03 00:35:11;;;;;;;2.25;1.40;;;;;;;19.08;72.15;101441.00;4977771;28;20035;-93
2022/08/03 00:37:37;;;;;;;1.30;1.20;;;;;;;19.06;72.17;101443.72;4977981;28;20467;-92
2022/08/03 00:40:20;;;;;;;1.50;1.40;;;;;;;19.06;72.47;101440.22;4977699;28;20046;-94
2022/08/03 00:42:52;;;;;;;1.42;1.33;;;;;;;19.03;72.57;101440.34;4977480;28;20558;-92
2022/08/03 00:45:24;;;;;;;1.42;1.33;;;;;;;18.97;72.43;101428.31;4977937;28;20042;-93
2022/08/03 00:47:50;;;;;;;1.33;1.23;;;;;;;18.94;72.53;101438.94;4977826;28;20110;-93
2022/08/03 00:50:16;;;;;;;1.40;1.20;;;;;;;18.91;72.42;101432.03;4977509;28;20105;-93
2022/08/03 00:52:51;;;;;;;;;;;;;;;18.90;72.75;101437.31;4977425;28;20047;-93
2022/08/03 00:55:16;;;;;;;1.60;1.17;;;;;;;18.87;73.17;101440.94;4977490;28;20004;-93
2022/08/03 00:57:42;;;;;;;0.97;0.97;;;;;;;18.83;72.83;101436.72;4977236;28;20114;-93
2022/08/03 01:00:11;;;;;;;1.23;1.20;;;;;;;18.79;72.72;101427.25;4977312;28;20475;-92
2022/08/03 01:02:38;;;;;;;1.27;1.23;;;;;;;18.78;73.06;101431.66;4977159;28;20391;-93
2022/08/03 01:05:09;;;;;;;1.27;1.10;;;;;;;18.74;72.95;101426.56;4977384;28;20487;-93
2022/08/03 01:08:18;;;;;;;1.20;1.20;;;;;;;18.73;73.05;101425.72;4977109;28;20534;-92
2022/08/03 01:11:01;;;;;;;1.45;1.35;;;;;;;18.71;73.10;101427.56;4976897;28;20056;-93
2022/08/03 01:14:00;;;;;;;1.10;1.10;;;;;;;18.68;73.25;101420.66;4977444;28;20038;-92
2022/08/03 01:16:56;;;;;;;1.85;1.35;;;;;;;18.64;73.29;101419.06;4976700;28;20062;-92
2022/08/03 01:19:35;;;;;;;1.45;1.35;;;;;;;18.62;73.29;101423.53;4977271;28;20121;-92
2022/08/03 01:22:13;;;;;;;1.52;1.40;;;;;;;18.60;73.44;101421.88;4976939;28;20423;-92
2022/08/03 01:25:01;;;;;;;1.75;1.20;;;;;;;18.59;73.56;101414.91;4977054;28;20035;-93
2022/08/03 01:27:44;;;;;;;1.25;1.15;;;;;;;18.56;73.62;101413.25;4976545;28;20038;-93
2022/08/03 01:30:11;;;;;;;1.52;1.42;;;;;;;18.52;73.73;101419.56;4976220;28;20105;-92
2022/08/03 01:32:54;;;;;;;1.50;1.40;;;;;;;18.49;73.85;101412.66;4976761;28;20023;-93
2022/08/03 01:35:37;;;;;;;1.20;1.20;;;;;;;18.49;73.84;101417.03;4976527;28;20027;-92
2022/08/03 01:38:08;;;;;;;1.67;1.45;;;;;;;18.47;74.16;101410.97;4976353;28;20027;-93
2022/08/03 01:40:36;;;;;;;1.98;1.40;;;;;;;18.44;74.09;101416.38;4976716;28;20042;-92
2022/08/03 01:43:06;;;;;;;1.55;1.27;;;;;;;18.41;74.69;101417.31;4976331;28;20023;-93
2022/08/03 01:45:33;;;;;;;1.63;1.20;;;;;;;18.36;74.24;101408.78;4976715;28;20029;-92
2022/08/03 01:48:00;;;;;;;1.40;1.30;;;;;;;18.34;74.26;101410.63;4976539;28;20054;-93
2022/08/03 01:50:29;;;;;;;1.33;1.23;;;;;;;18.32;74.50;101413.31;4976211;28;20483;-93
2022/08/03 01:52:56;;;;;;;1.38;1.20;;;;;;;18.31;74.67;101415.97;4975857;28;20046;-92
2022/08/03 01:55:23;;;;;;;1.10;1.10;;;;;;;18.30;74.71;101414.25;4976644;28;20034;-93
2022/08/03 02:00:42;;;;;;;1.35;1.25;;;;;;;18.23;74.89;101408.41;4976515;28;20566;-92
2022/08/03 02:03:10;;;;;;;1.35;1.25;;;;;;;18.19;74.94;101412.91;4975888;28;20038;-92
2022/08/03 02:05:38;;;;;;;1.30;1.20;;;;;;;18.18;75.02;101402.47;4976089;28;20031;-92
2022/08/03 02:08:06;;;;;;;2.65;1.35;;;;;;;18.16;75.02;101407.78;4976084;28;20041;-92
2022/08/03 02:10:34;;;;;;;1.63;1.17;;;;;;;18.18;75.14;101412.97;4976138;28;20034;-92
2022/08/03 02:13:00;;;;;;;1.65;1.38;;;;;;;18.16;75.12;101412.19;4975747;28;20073;-92
2022/08/03 02:15:27;;;;;;;1.67;1.20;;;;;;;18.14;75.57;101406.13;4975968;28;20023;-93
2022/08/03 02:17:54;;;;;;;1.50;1.40;;;;;;;18.12;75.35;101407.97;4975860;28;20482;-92
2022/08/03 02:20:20;;;;;;;;;;;;;;;18.13;75.48;101399.16;4976340;28;20540;-92
2022/08/03 02:22:45;;;;;;;;;;;;;;;18.11;75.50;101407.09;4976009;28;20363;-92
2022/08/03 02:25:12;;;;;;;1.60;1.43;;;;;;;18.10;75.32;101404.53;4975867;28;19942;-92
2022/08/03 02:27:48;;;;;;;1.55;1.30;;;;;;;18.09;75.38;101405.47;4975987;28;20030;-91
2022/08/03 02:30:14;;;;;;;1.50;1.40;;;;;;;18.07;75.54;101405.50;4975515;28;20026;-92
2022/08/03 02:32:45;;;;;;;1.60;1.50;;;;;;;18.04;75.61;101403.84;4975585;28;20082;-91
2022/08/03 02:35:27;;;;;;;1.17;1.15;;;;;;;18.02;75.60;101399.56;4974924;28;20387;-92
2022/08/03 02:38:10;;;;;;;1.60;1.50;;;;;;;18.00;75.59;101398.78;4975964;28;20033;-91
2022/08/03 02:40:42;;;;;;;1.20;1.20;;;;;;;17.96;75.55;101394.53;4975915;28;20023;-92
2022/08/03 02:43:22;;;;;;;1.50;1.40;;;;;;;17.96;75.75;101398.00;4974724;28;20035;-92
2022/08/03 02:45:50;;;;;;;1.40;1.30;;;;;;;17.92;75.92;101393.78;4975586;28;20483;-92
2022/08/03 02:48:24;;;;;;;1.48;1.30;;;;;;;17.88;75.91;101394.81;4974600;28;20019;-91
2022/08/03 02:50:55;;;;;;;2.28;1.50;;;;;;;17.85;76.06;101392.28;4974765;28;20043;-92
2022/08/03 02:53:22;;;;;;;1.05;1.02;;;;;;;17.85;76.01;101400.16;4975571;28;20023;-93
2022/08/03 02:55:48;;;;;;;3.20;1.45;;;;;;;17.81;76.80;101394.19;4974735;28;20522;-92
2022/08/03 02:58:17;;;;;;;1.20;1.13;;;;;;;17.77;76.91;101391.72;4975419;28;20022;-92
2022/08/03 03:00:43;;;;;;;1.55;1.08;;;;;;;17.74;76.58;101393.56;4975486;28;20022;-91
2022/08/03 03:03:10;;;;;;;1.30;1.20;;;;;;;17.73;78.78;101391.00;4975229;28;20134;-91
2022/08/03 03:05:36;;;;;;;1.20;1.10;;;;;;;17.71;77.36;101388.41;4975513;28;20098;-92
2022/08/03 03:08:02;;;;;;;1.30;1.00;;;;;;;17.68;77.59;101385.88;4975142;28;20029;-92
2022/08/03 03:10:28;;;;;;;1.60;1.10;;;;;;;17.66;77.42;101386.84;4975392;28;20023;-92
2022/08/03 03:13:01;;;;;;;1.15;1.00;;;;;;;17.65;79.48;101385.16;4974897;28;20113;-92
2022/08/03 03:15:28;;;;;;;0.80;0.80;;;;;;;17.66;78.91;101385.09;4975315;28;20028;-91
2022/08/03 03:17:55;;;;;;;1.15;1.02;;;;;;;17.65;77.87;101386.03;4974699;28;20058;-91
2022/08/03 03:20:20;;;;;;;;;;;;;;;17.66;78.47;101392.97;4975592;28;20038;-91
2022/08/03 03:22:48;;;;;;;1.02;1.02;;;;;;;17.65;77.64;101391.28;4975278;28;19914;-92
2022/08/03 03:25:16;;;;;;;0.98;0.93;;;;;;;17.66;77.84;101394.72;4975558;28;20031;-92
2022/08/03 03:27:42;;;;;;;1.02;1.02;;;;;;;17.65;77.78;101390.41;4975160;28;20109;-91
2022/08/03 03:30:08;;;;;;;1.10;1.00;;;;;;;17.65;77.70;101383.41;4974777;28;20027;-92
2022/08/03 03:32:35;;;;;;;1.05;0.95;;;;;;;17.66;77.83;101381.59;4974571;28;20030;-91
2022/08/03 03:35:01;;;;;;;1.05;1.00;;;;;;;17.66;77.84;101384.22;4974702;28;20105;-92
2022/08/03 03:37:26;;;;;;;1.50;1.27;;;;;;;17.66;77.53;101385.09;4975005;28;20143;-91
2022/08/03 03:39:53;;;;;;;1.03;1.03;;;;;;;17.64;77.69;101386.94;4974539;28;20535;-91
2022/08/03 03:42:19;;;;;;;0.90;0.90;;;;;;;17.65;77.89;101385.16;4974692;28;20081;-91
2022/08/03 03:44:44;;;;;;;2.50;1.13;;;;;;;17.63;77.83;101382.59;4974659;28;20023;-91
2022/08/03 03:47:12;;;;;;;1.17;0.97;;;;;;;17.60;77.61;101383.56;4974415;28;20324;-91
2022/08/03 03:49:39;;;;;;;1.40;1.30;;;;;;;17.62;78.07;101380.88;4974525;28;20027;-91
2022/08/03 03:52:05;;;;;;;1.10;1.10;;;;;;;17.61;77.81;101379.16;4974391;28;20070;-91
2022/08/03 03:54:41;;;;;;;1.48;1.10;;;;;;;17.60;78.11;101380.06;4977020;28;20058;-91
2022/08/03 03:57:07;;;;;;;1.13;1.10;;;;;;;17.57;78.17;101383.66;4978725;28;20027;-91
2022/08/03 03:59:37;;;;;;;1.02;1.02;;;;;;;17.54;77.98;101375.91;4978497;28;20026;-91
2022/08/03 04:02:03;;;;;;;0.98;0.98;;;;;;;17.54;78.02;101377.69;4977969;28;20541;-91
2022/08/03 04:12:44;;;;;;;1.40;1.30;;;;;;;17.49;78.31;101379.59;4978327;28;20150;-90
2022/08/03 04:15:11;;;;;;;1.10;1.00;;;;;;;17.46;78.34;101377.94;4977904;28;20538;-91
2022/08/03 04:17:39;;;;;;;2.00;1.20;;;;;;;17.44;78.35;101385.00;4978031;28;20031;-91
2022/08/03 04:20:05;;;;;;;1.42;1.15;;;;;;;17.43;78.33;101381.53;4978071;28;20058;-91
2022/08/03 04:22:32;;;;;;;1.38;1.25;;;;;;;17.41;78.27;101385.97;4976946;28;20418;-91
2022/08/03 04:25:04;;;;;;;1.67;1.20;;;;;;;17.40;78.70;101388.63;4977287;28;20438;-91
2022/08/03 04:27:37;;;;;;;1.83;1.10;;;;;;;17.38;80.02;101383.47;4977846;28;20066;-91
2022/08/03 04:30:05;;;;;;;3.28;1.30;;;;;;;17.35;78.83;101390.59;4977687;28;20035;-91
2022/08/03 04:32:31;;;;;;;1.08;1.08;;;;;;;17.34;80.39;101384.47;4977569;28;20113;-91
2022/08/03 04:35:03;;;;;;;1.20;1.10;;;;;;;17.32;78.77;101388.94;4977641;28;20050;-91
2022/08/03 04:37:42;;;;;;;1.02;1.02;;;;;;;17.32;79.87;101391.56;4977834;28;20031;-91
2022/08/03 04:40:13;;;;;;;1.30;1.20;;;;;;;17.32;81.08;101396.81;4973512;28;20552;-91
2022/08/03 04:42:40;;;;;;;1.40;1.33;;;;;;;17.31;80.82;101392.47;4977860;28;20434;-91
2022/08/03 04:45:09;;;;;;;1.08;0.93;;;;;;;17.31;80.79;101392.47;4977529;28;20023;-91
2022/08/03 04:47:36;;;;;;;1.13;1.02;;;;;;;17.31;79.91;101394.22;4977123;28;20130;-91
2022/08/03 04:50:03;;;;;;;2.25;1.50;;;;;;;17.31;82.41;101394.22;4977571;28;20034;-91
2022/08/03 04:52:29;;;;;;;1.20;1.10;;;;;;;17.32;82.09;101401.19;4977426;28;20070;-93
2022/08/03 04:54:55;;;;;;;1.50;1.20;;;;;;;17.33;81.40;101402.91;4977399;28;20078;-92
2022/08/03 04:57:20;;;;;;;2.10;1.25;;;;;;;17.36;81.75;101405.41;4976956;28;20023;-92
2022/08/03 04:59:48;;;;;;;1.07;1.07;;;;;;;17.39;81.05;101403.53;4977550;28;20026;-92
2022/08/03 05:02:13;;;;;;;0.90;0.90;;;;;;;17.42;82.18;101415.69;4977582;28;20062;-91
2022/08/03 05:04:40;;;;;;;1.23;1.07;;;;;;;17.45;82.09;101412.97;4976769;28;20023;-91
2022/08/03 05:07:05;;;;;;;;;;;;;;;17.47;81.28;101415.53;4977322;28;20026;-91
2022/08/03 05:09:30;;;;;;;1.13;1.03;;;;;;;17.51;82.79;101411.91;4977691;28;19914;-91
2022/08/03 05:11:56;;;;;;;1.53;1.00;;;;;;;17.54;81.74;101406.53;4977192;28;20030;-91
2022/08/03 05:14:21;;;;;;;1.40;1.00;;;;;;;17.57;81.08;101416.91;4977769;28;20030;-92
2022/08/03 05:16:46;;;;;;;1.20;0.90;;;;;;;17.59;81.11;101420.34;4976863;28;20085;-92
2022/08/03 05:19:12;;;;;;;0.80;0.80;;;;;;;17.62;80.61;101422.03;4977227;28;20482;-91
2022/08/03 05:21:37;;;;;;;0.70;0.70;;;;;;;17.65;80.88;101420.13;4977054;28;20077;-91
2022/08/03 05:24:03;;;;;;;0.98;0.93;;;;;;;17.70;81.29;101431.31;4976943;28;20070;-92
2022/08/03 05:26:28;;;;;;;0.93;0.70;;;;;;;17.74;81.07;101429.44;4977279;28;20023;-93
2022/08/03 05:28:54;;;;;;;0.67;0.67;;;;;;;17.77;81.45;101421.44;4977070;28;20102;-93
2022/08/03 05:31:19;;;;;;;2.20;1.07;;;;;;;17.81;82.25;101424.81;4977259;28;20085;-92
2022/08/03 05:33:46;;;;;;;1.10;1.00;;;;;;;17.87;82.90;101427.22;4977180;28;20030;-92
2022/08/03 05:36:12;;;;;;;1.27;0.98;;;;;;;17.91;83.46;101421.81;4959228;28;20027;-92
2022/08/03 05:38:37;;;;;;;1.00;0.97;;;;;;;17.98;82.81;101426.84;4976270;28;20482;-93
2022/08/03 05:41:03;;;;;;;0.90;0.90;;;;;;;18.05;82.11;101434.44;4958870;28;20054;-88
2022/08/03 05:43:28;;;;;;;1.43;1.10;;;;;;;18.12;83.84;101431.63;4976745;28;20043;-91
2022/08/03 05:51:10;;;;;;;1.02;0.88;;;;;;;18.28;84.29;101437.13;5820247;23;20077;-89
2022/08/03 05:53:36;;;;;;;2.20;1.60;;;;;;;18.34;84.96;101435.13;4996433;28;20030;-86
2022/08/03 05:56:11;;;;;;;1.70;1.40;;;;;;;18.43;83.88;101438.31;4994736;28;20103;-88
2022/08/03 05:58:36;;;;;;;1.58;1.42;;;;;;;18.47;84.21;101440.75;4994582;28;20049;-87
2022/08/03 06:01:02;;;;;;;1.53;1.27;;;;;;;18.54;84.01;101436.13;4994818;28;20471;-87
2022/08/03 06:03:33;;;;;;;1.30;1.20;;;;;;;18.59;84.73;101434.16;4995137;28;20073;-88
2022/08/03 06:05:58;;;;;;;2.28;1.50;;;;;;;18.68;84.17;101436.44;4994336;28;20034;-82
2022/08/03 06:08:24;;;;;;;4.60;1.90;;;;;;;18.77;84.48;101436.97;4994359;28;20023;-81
2022/08/03 06:10:49;;;;;;;5.43;2.00;;;;;;;18.85;83.25;101439.31;4994342;28;20062;-81
2022/08/03 06:13:15;;;;;;;3.07;1.63;;;;;;;18.90;83.67;101440.81;4993577;28;20104;-81
2022/08/03 06:15:43;;;;;;;2.40;1.60;;;;;;;19.00;83.02;101437.84;4994215;28;20057;-81
2022/08/03 06:18:08;;;;;;;2.53;1.40;;;;;;;19.07;82.44;101439.28;4993696;28;20434;-81
2022/08/03 06:20:34;;;;;;;3.83;1.70;;;;;;;19.13;82.59;101439.91;4993106;28;20026;-82
2022/08/03 06:22:59;;;;;;;3.27;1.73;;;;;;;19.22;82.79;101438.66;4993746;28;20030;-81
2022/08/03 06:25:25;;;;;;;3.17;1.73;;;;;;;19.30;82.38;101440.97;4994164;28;20101;-86
2022/08/03 06:27:50;;;;;;;1.77;1.50;;;;;;;19.36;82.60;101443.31;4993027;28;20494;-85
2022/08/03 06:30:25;;;;;;;7.13;2.10;;;;;;;19.45;81.82;101434.19;4995818;28;20294;-90
2022/08/03 06:32:50;;;;;;;3.58;1.70;;;;;;;19.52;81.35;101435.63;4996594;28;20044;-90
2022/08/03 06:35:21;;;;;;;1.50;1.40;;;;;;;19.61;80.86;101437.00;4996114;28;20113;-92
2022/08/03 06:37:48;;;;;;;1.48;1.40;;;;;;;19.68;80.97;101437.59;4994805;28;20034;-87
2022/08/03 06:40:17;;;;;;;1.35;1.23;;;;;;;19.77;80.91;101442.44;5010070;28;20066;-89
2022/08/03 06:42:43;;;;;;;1.27;1.17;;;;;;;20.24;81.61;101443.03;4999630;28;20057;-89
2022/08/03 06:45:09;;;;;;;5.23;1.70;;;;;;;21.06;75.89;101447.88;4995138;28;20026;-90
2022/08/03 06:47:47;;;;;;;1.80;1.70;;;;;;;21.87;78.24;101449.94;4994987;28;20073;-90
2022/08/03 06:50:19;;;;;;;2.00;1.48;;;;;;;23.87;73.59;101451.78;4995703;28;20542;-89
2022/08/03 06:52:49;;;;;;;2.88;1.65;;;;;;;26.00;67.45;101452.00;4995526;28;20187;-89
2022/08/03 06:55:15;;;;;;;1.55;1.40;;;;;;;27.59;66.92;101457.19;4994351;28;20034;-89
2022/08/03 06:57:43;;;;;;;1.50;1.40;;;;;;;28.82;63.01;101459.78;4994055;28;20038;-88
2022/08/03 07:00:10;;;;;;;1.05;0.95;;;;;;;29.88;58.95;101459.75;4993958;28;20281;-89
2022/08/03 07:02:36;;;;;;;3.60;1.60;;;;;;;30.65;53.05;101454.72;4976449;28;20046;-89
2022/08/03 07:05:07;;;;;;;5.47;1.83;;;;;;;30.41;50.84;101448.88;4993241;28;20049;-86
2022/08/03 07:07:33;;;;;;;3.95;1.80;;;;;;;30.03;51.02;101457.56;4993463;28;20038;-85
2022/08/03 07:09:58;;;;;;;3.10;1.60;;;;;;;29.56;52.63;101463.41;4992660;28;20530;-81
2022/08/03 07:12:25;;;;;;;2.43;1.50;;;;;;;29.14;53.16;101468.75;4993202;28;20030;-79
2022/08/03 07:14:50;;;;;;;3.33;1.73;;;;;;;28.64;49.99;101463.97;4993060;28;20046;-80
2022/08/03 07:17:16;;;;;;;3.83;1.57;;;;;;;28.05;54.02;101463.34;4992482;28;20061;-79
2022/08/03 07:19:42;;;;;;;1.50;1.40;;;;;;;27.62;56.43;101464.97;4993547;28;20050;-82
2022/08/03 07:22:10;;;;;;;2.28;1.30;;;;;;;27.19;57.89;101466.41;4992836;28;20056;-80
2022/08/03 07:24:35;;;;;;;3.25;1.38;;;;;;;26.64;57.41;101463.38;4993318;28;20097;-82
2022/08/03 07:27:01;;;;;;;2.85;1.70;;;;;;;26.29;58.61;101473.00;4991897;28;20079;-85
2022/08/03 07:29:26;;;;;;;4.05;1.40;;;;;;;25.98;57.59;101477.84;4995356;28;20014;-84
2022/08/03 07:31:51;;;;;;;3.77;1.70;;;;;;;25.70;57.63;101469.13;4997046;28;20455;-83
2022/08/03 07:34:17;;;;;;;2.83;1.50;;;;;;;25.48;61.95;101475.09;4998310;28;20018;-88
2022/08/03 07:36:42;;;;;;;4.13;1.80;;;;;;;25.39;61.86;101476.53;4999260;28;20038;-90
2022/08/03 07:39:07;;;;;;;2.87;1.50;;;;;;;25.28;61.00;101477.25;5001057;28;20038;-90
2022/08/03 07:41:33;;;;;;;3.00;1.33;;;;;;;25.13;60.49;101479.16;4999036;28;20041;-89
2022/08/03 07:43:58;;;;;;;1.80;0.90;;;;;;;25.04;60.89;101465.66;5000884;28;20039;-91
2022/08/03 07:46:32;;;;;;;5.70;1.70;;;;;;;24.88;60.17;101469.31;4997985;28;20023;-89
2022/08/03 07:49:00;;;;;;;4.43;1.70;;;;;;;24.75;60.23;101465.78;4994579;28;20491;-85
2022/08/03 07:51:26;;;;;;;3.80;1.90;;;;;;;24.67;62.69;101464.44;4995160;28;20035;-87
2022/08/03 07:53:51;;;;;;;3.80;1.70;;;;;;;24.73;61.45;101465.88;4996885;28;20160;-88
2022/08/03 07:56:16;;;;;;;2.63;1.50;;;;;;;24.77;60.16;101466.53;4998464;28;20038;-89
2022/08/03 07:58:42;;;;;;;5.93;1.73;;;;;;;24.80;60.06;101467.16;4995915;28;20030;-80
2022/08/03 08:01:07;;;;;;;3.47;1.40;;;;;;;24.85;61.53;101463.38;4996586;28;20018;-85
2022/08/03 08:03:33;;;;;;;2.17;1.20;;;;;;;24.87;61.42;101464.13;4996344;28;20026;-84
2022/08/03 08:05:58;;;;;;;1.95;1.33;;;;;;;24.93;61.72;101467.22;4995487;28;20033;-84
2022/08/03 08:08:23;;;;;;;3.57;1.30;;;;;;;24.98;61.99;101465.09;4996639;28;20023;-85
2022/08/03 08:10:49;;;;;;;1.80;1.00;;;;;;;25.05;61.23;101457.56;4995664;28;20041;-84
2022/08/03 08:13:14;;;;;;;1.60;1.30;;;;;;;25.12;61.97;101460.69;4997425;28;20544;-81
2022/08/03 08:15:39;;;;;;;2.20;1.00;;;;;;;25.24;62.20;101457.19;4996596;28;20068;-92
2022/08/03 08:18:05;;;;;;;2.37;1.17;;;;;;;25.34;59.21;101459.22;4997157;28;20034;-87
2022/08/03 08:20:33;;;;;;;4.37;1.40;;;;;;;25.36;60.68;101468.78;4995798;28;20093;-85
2022/08/03 08:23:01;;;;;;;1.75;1.33;;;;;;;25.43;60.38;101464.78;4995875;28;20718;-86
2022/08/03 08:25:27;;;;;;;3.10;1.30;;;;;;;25.49;60.59;101466.19;4996508;28;20042;-88
2022/08/03 08:27:53;;;;;;;2.40;1.40;;;;;;;25.58;58.91;101462.00;4995753;28;20026;-84
2022/08/03 08:30:22;;;;;;;3.22;1.60;;;;;;;25.62;58.60;101463.50;4995915;28;20049;-83
2022/08/03 08:32:48;;;;;;;2.50;1.40;;;;;;;25.66;59.53;101459.69;4995632;28;20379;-82
2022/08/03 08:35:14;;;;;;;4.43;1.23;;;;;;;25.73;58.75;101460.94;4996085;28;20482;-82
2022/08/03 08:37:40;;;;;;;2.88;1.40;;;;;;;25.81;59.22;101452.44;4995798;28;20137;-82
2022/08/03 08:40:07;;;;;;;0.70;0.68;;;;;;;25.94;57.35;101451.56;4993835;28;20109;-81
2022/08/03 08:42:33;;;;;;;4.30;1.58;;;;;;;26.03;58.29;101457.06;4996077;28;20053;-82
2022/08/03 08:45:04;;;;;;;6.10;1.90;;;;;;;26.04;58.46;101453.44;4995989;28;20037;-82
2022/08/03 08:47:30;;;;;;;3.33;1.52;;;;;;;26.15;57.97;101452.72;4995625;28;20029;-86
2022/08/03 08:49:57;;;;;;;3.28;1.20;;;;;;;26.24;57.74;101451.19;4995590;28;20050;-85
2022/08/03 08:52:30;;;;;;;3.58;1.50;;;;;;;26.32;55.45;101454.16;4995279;28;20050;-87
2022/08/03 08:55:02;;;;;;;5.40;1.77;;;;;;;26.40;56.17;101450.09;4994865;28;20042;-85
2022/08/03 08:57:34;;;;;;;7.55;1.85;;;;;;;26.44;55.71;101455.06;4996074;28;20093;-87
2022/08/03 09:00:00;;;;;;;5.50;1.75;;;;;;;26.53;53.67;101448.22;4995780;28;20050;-88
2022/08/03 09:02:29;;;;;;;6.65;1.73;;;;;;;26.59;55.16;101453.09;4995214;28;20030;-87
2022/08/03 09:04:55;;;;;;;5.63;1.70;;;;;;;26.70;55.49;101451.44;4995617;28;20026;-87
2022/08/03 09:07:20;;;;;;;;;;;;;;;26.80;55.22;101455.13;4996229;28;20034;-89
2022/08/03 09:09:47;;;;;;;3.33;1.33;;;;;;;26.94;56.13;101457.63;4995041;28;19940;-88
2022/08/03 09:12:12;;;;;;;2.90;1.25;;;;;;;27.07;56.17;101449.56;4995719;28;20022;-87
2022/08/03 09:14:37;;;;;;;1.00;0.90;;;;;;;27.21;56.29;101456.50;4995517;28;20037;-87
2022/08/03 09:17:03;;;;;;;3.63;1.40;;;;;;;27.32;55.07;101455.66;4994597;28;20038;-87
2022/08/03 09:19:30;;;;;;;2.37;1.03;;;;;;;27.39;55.46;101454.25;4995737;28;20105;-89
2022/08/03 09:22:16;;;;;;;3.40;1.52;;;;;;;27.51;52.74;101456.94;4994490;28;20277;-87
2022/08/03 09:25:00;;;;;;;3.88;1.50;;;;;;;27.59;54.36;101457.19;4995401;28;20442;-88
2022/08/03 09:27:29;;;;;;;5.35;1.70;;;;;;;27.68;52.28;101458.28;4995458;28;20033;-87
2022/08/03 09:29:54;;;;;;;3.45;1.67;;;;;;;27.74;53.90;101461.34;4994695;28;20022;-90
2022/08/03 09:32:23;;;;;;;3.03;1.35;;;;;;;27.85;52.25;101452.47;4995919;28;20379;-89
2022/08/03 09:34:50;;;;;;;4.03;1.38;;;;;;;27.96;52.82;101448.09;4994832;28;20034;-87
2022/08/03 09:37:18;;;;;;;2.15;1.00;;;;;;;28.07;53.00;101456.06;4994422;28;20120;-89
2022/08/03 09:39:44;;;;;;;6.93;1.90;;;;;;;28.16;52.14;101460.69;4994660;28;20364;-87
2022/08/03 09:42:16;;;;;;;5.07;1.73;;;;;;;28.26;51.96;101451.97;4994986;28;20120;-79
2022/08/03 09:44:44;;;;;;;4.10;1.52;;;;;;;28.29;52.49;101449.91;4994155;28;20411;-82
2022/08/03 09:47:10;;;;;;;3.53;1.05;;;;;;;28.45;52.41;101454.81;4994625;28;20293;-85
2022/08/03 09:49:37;;;;;;;4.03;1.33;;;;;;;28.54;50.01;101455.91;4994725;28;20054;-85
2022/08/03 09:52:13;;;;;;;4.80;1.52;;;;;;;28.58;51.13;101459.16;4993172;28;20052;-85
2022/08/03 09:54:40;;;;;;;3.92;1.50;;;;;;;28.61;49.29;101451.75;4994772;28;20026;-85
2022/08/03 09:57:05;;;;;;;3.03;1.20;;;;;;;28.69;51.07;101453.78;4993449;28;20026;-85
2022/08/03 09:59:31;;;;;;;;;;;;;;;28.85;50.55;101453.38;4994980;28;20031;-85
2022/08/03 10:01:58;;;;;;;2.20;1.30;;;;;;;29.00;50.84;101456.56;4993960;28;20000;-84
2022/08/03 10:04:24;;;;;;;4.88;1.52;;;;;;;29.10;49.98;101457.47;4993859;28;20031;-85
2022/08/03 10:07:02;;;;;;;;;;;;;;;29.20;48.35;101462.91;4994063;28;20085;-85
2022/08/03 10:09:27;;;;;;;8.13;1.63;;;;;;;29.25;48.18;101457.16;4994432;28;19914;-85
2022/08/03 10:11:53;;;;;;;;;;;;;;;29.36;50.13;101459.78;4994321;28;20022;-85
2022/08/03 10:14:19;;;;;;;7.00;1.58;;;;;;;29.49;47.56;101448.88;4995575;28;19929;-86
2022/08/03 10:16:45;;;;;;;;;;;;;;;29.46;47.91;101457.16;4994545;28;20210;-86
2022/08/03 10:19:12;;;;;;;7.32;1.67;;;;;;;29.56;48.87;101454.53;4993286;28;19921;-85
2022/08/03 10:21:40;;;;;;;5.55;1.88;;;;;;;29.69;47.99;101456.97;4994374;28;20030;-86
2022/08/03 10:24:08;;;;;;;4.55;1.90;;;;;;;29.76;47.19;101447.47;4993997;28;20026;-86
2022/08/03 10:26:36;;;;;;;2.47;1.48;;;;;;;29.85;46.73;101440.44;4993319;28;20034;-85
2022/08/03 10:29:07;;;;;;;3.70;1.50;;;;;;;29.97;45.81;101443.88;4993950;28;20105;-85
2022/08/03 10:31:39;;;;;;;4.43;1.50;;;;;;;30.05;46.68;101438.69;4993832;28;20034;-85
2022/08/03 10:34:10;;;;;;;4.25;1.50;;;;;;;30.14;46.80;101437.88;4992947;28;20038;-87
2022/08/03 10:36:38;;;;;;;5.18;1.70;;;;;;;30.14;44.01;101440.53;4993836;28;20037;-87
2022/08/03 10:39:03;;;;;;;5.60;1.63;;;;;;;30.16;46.85;101435.91;4993808;28;20030;-86
2022/08/03 10:41:35;;;;;;;3.13;1.30;;;;;;;30.32;45.78;101430.00;4993335;28;20424;-86
2022/08/03 10:44:21;;;;;;;5.55;1.40;;;;;;;30.48;45.69;101426.78;4993368;28;20054;-87
2022/08/03 10:46:49;;;;;;;2.00;0.93;;;;;;;30.66;45.05;101426.94;4993150;28;20038;-86
2022/08/03 10:49:16;;;;;;;2.13;1.20;;;;;;;30.76;45.44;101421.59;4993648;28;20022;-87
2022/08/03 10:51:44;;;;;;;3.40;1.20;;;;;;;30.91;45.49;101423.81;4993478;28;20558;-86
2022/08/03 10:57:33;;;;;;;8.13;1.70;;;;;;;30.95;44.52;101417.19;4992719;28;20085;-86
2022/08/03 10:57:41;;;;;;;2.78;1.45;;;;;;;30.99;46.03;101412.38;4993165;28;20140;-87
2022/08/03 11:00:07;;;;;;;5.10;1.60;;;;;;;31.08;44.44;101403.47;4990777;28;20476;-86
2022/08/03 11:03:13;;;;;;;3.38;1.15;;;;;;;31.27;42.94;101414.19;4991448;28;20034;-86
2022/08/03 11:05:47;;;;;;;4.18;1.35;;;;;;;31.34;42.96;101410.91;4993843;28;20033;-86
2022/08/03 11:08:19;;;;;;;1.90;0.80;;;;;;;31.46;43.10;101404.38;4987354;28;20063;-86
2022/08/03 11:10:45;;;;;;;2.72;1.17;;;;;;;31.49;42.72;101401.41;4992881;28;20027;-86
2022/08/03 11:13:15;;;;;;;2.90;1.05;;;;;;;31.53;43.79;101400.09;4986823;28;20055;-87
2022/08/03 11:15:44;;;;;;;5.85;1.35;;;;;;;31.58;41.95;101394.31;4988384;28;20559;-86
2022/08/03 11:18:10;;;;;;;5.13;1.40;;;;;;;31.61;41.86;101387.78;4991607;28;20033;-87
2022/08/03 11:20:57;;;;;;;1.67;0.80;;;;;;;31.73;42.13;101398.19;4993022;28;20031;-86
2022/08/03 11:23:41;;;;;;;2.85;1.13;;;;;;;31.88;42.47;101392.34;4990051;28;20499;-86
2022/08/03 11:26:10;;;;;;;1.33;0.90;;;;;;;32.09;43.84;101392.03;4987962;28;20046;-87
2022/08/03 11:28:37;;;;;;;3.90;1.27;;;;;;;32.19;41.39;101398.22;4991829;28;20398;-85
2022/08/03 11:31:21;;;;;;;3.80;1.33;;;;;;;32.07;39.63;101394.06;4983638;28;20041;-84
2022/08/03 11:34:03;;;;;;;2.33;0.90;;;;;;;32.10;41.42;101395.59;4991733;28;20121;-85
2022/08/03 11:36:28;;;;;;;2.85;1.50;;;;;;;32.19;40.79;101398.22;4991525;28;20037;-85
2022/08/03 11:39:13;;;;;;;4.60;1.40;;;;;;;32.37;41.27;101402.75;4991411;28;20022;-85
2022/08/03 11:41:38;;;;;;;2.15;1.10;;;;;;;32.50;39.96;101405.03;4973098;28;20282;-85
2022/08/03 11:44:04;;;;;;;3.58;1.13;;;;;;;32.57;40.02;101403.44;4984660;28;20030;-85
2022/08/03 11:46:36;;;;;;;2.53;1.10;;;;;;;32.63;40.50;101405.50;4992394;28;20085;-84
2022/08/03 11:49:05;;;;;;;3.25;1.17;;;;;;;32.69;40.09;101395.13;4992095;28;20018;-84
2022/08/03 11:51:31;;;;;;;2.25;1.10;;;;;;;32.71;38.19;101387.75;4991998;28;20035;-85